PWSweather.com
Personal Weather Stations
Station Observations
SBERGENWX
Wood Ridge, NJ 07075

Wood Ridge, NJ 07075

Lat: 40.851667, Lon: -74.088131

Elevation: 177

Station Type: Davis Vantage Vue

http://201weather.com/

High Low Average
Temperature 58.6°F14.8°C 44.7°F7.1°C 50.5°F10.3°C
Dew Point 55.1°F12.8°C 31.3°F-0.4°C 37.7°F3.2°C
Winds 3.5 mph 5.6 kmh Calm Calm 1.0 mph WSW1.6 kmh WSW
Wind Gusts 9.2 mph14.8 kmh -- 3.0 mph4.8 kmh
Humidity 89% 45% 62%
Pressure 30.17 in1021.7 mb 29.93 in1013.5 mb -
Precipitation 0.02 in0.5 mm - -
Hour Temp Dew Point Humidity Winds Wind Gusts Pressure Precip Precip Rate Daily Precip Total
12:00 AM 61.1°F16.2°C 56.6°F13.7°C 85% 3.5 mph W5.6 kmh W 6.9 mph11.1 kmh 29.89 in1012.2 mb - 0.03 in0.8 mm 0.03 in0.8 mm
12:15 AM 60.2°F15.7°C 55.7°F13.2°C 85% 4.6 mph NW7.4 kmh NW 9.2 mph14.8 kmh 29.90 in1012.5 mb - 0.02 in0.5 mm 0.05 in1.3 mm
12:30 AM 59.5°F15.3°C 55.6°F13.1°C 87% 2.3 mph WSW3.7 kmh WSW 3.5 mph5.6 kmh 29.90 in1012.5 mb - 0.03 in0.8 mm 0.01 in0.3 mm
12:45 AM 59.0°F15.0°C 55.4°F13.0°C 88% 1.2 mph W1.9 kmh W 5.8 mph9.3 kmh 29.91 in1012.9 mb - 0.02 in0.5 mm 0.01 in0.3 mm
01:00 AM 58.6°F14.8°C 55.1°F12.8°C 88% 3.5 mph W5.6 kmh W 5.8 mph9.3 kmh 29.93 in1013.5 mb - 0.01 in0.3 mm 0.01 in0.3 mm
01:15 AM 57.9°F14.4°C 54.7°F12.6°C 89% 1.2 mph SW1.9 kmh SW 3.5 mph5.6 kmh 29.94 in1013.9 mb - 0.01 in0.3 mm 0.01 in0.3 mm
01:30 AM 57.6°F14.2°C 53.4°F11.9°C 86% 1.2 mph WSW1.9 kmh WSW 2.3 mph3.7 kmh 29.95 in1014.2 mb - 0.01 in0.3 mm 0.02 in0.5 mm
01:45 AM 57.4°F14.1°C 53.2°F11.8°C 86% Calm Calm 1.2 mph1.9 kmh 29.96 in1014.6 mb - 0.01 in0.3 mm 0.02 in0.5 mm
02:00 AM 57.1°F13.9°C 51.0°F10.6°C 80% 2.3 mph E3.7 kmh E 3.5 mph5.6 kmh 29.97 in1014.9 mb - 0.01 in0.3 mm 0.02 in0.5 mm
02:15 AM 56.7°F13.7°C 47.8°F8.8°C 72% 2.3 mph NW3.7 kmh NW 3.5 mph5.6 kmh 29.98 in1015.2 mb - 0.01 in0.3 mm 0.02 in0.5 mm
02:30 AM 56.2°F13.4°C 45.4°F7.4°C 67% 1.2 mph N1.9 kmh N 5.8 mph9.3 kmh 29.98 in1015.2 mb - 0.00 in0.0 mm 0.02 in0.5 mm
02:45 AM 55.5°F13.1°C 44.7°F7.1°C 67% 1.2 mph NNW1.9 kmh NNW 3.5 mph5.6 kmh 29.99 in1015.6 mb - 0.00 in0.0 mm 0.02 in0.5 mm
03:00 AM 55.1°F12.8°C 44.3°F6.8°C 67% 1.2 mph WNW1.9 kmh WNW 9.2 mph14.8 kmh 29.99 in1015.6 mb - 0.00 in0.0 mm 0.02 in0.5 mm
03:15 AM 54.7°F12.6°C 44.0°F6.7°C 67% 1.2 mph NW1.9 kmh NW 4.6 mph7.4 kmh 29.99 in1015.6 mb - 0.00 in0.0 mm 0.02 in0.5 mm
03:30 AM 54.1°F12.3°C 44.5°F6.9°C 70% 1.2 mph N1.9 kmh N 3.5 mph5.6 kmh 30.00 in1015.9 mb - 0.00 in0.0 mm 0.02 in0.5 mm
03:45 AM 53.7°F12.1°C 44.5°F6.9°C 71% 1.2 mph NW1.9 kmh NW 3.5 mph5.6 kmh 30.01 in1016.3 mb - 0.00 in0.0 mm 0.02 in0.5 mm
04:00 AM 53.2°F11.8°C 44.4°F6.9°C 72% 2.3 mph N3.7 kmh N 3.5 mph5.6 kmh 30.01 in1016.3 mb - 0.00 in0.0 mm 0.02 in0.5 mm
04:15 AM 52.3°F11.3°C 43.2°F6.2°C 71% 2.3 mph NNE3.7 kmh NNE 5.8 mph9.3 kmh 30.03 in1016.9 mb - 0.00 in0.0 mm 0.02 in0.5 mm
04:30 AM 51.0°F10.6°C 41.2°F5.1°C 69% 1.2 mph NE1.9 kmh NE 2.3 mph3.7 kmh 30.04 in1017.3 mb - 0.00 in0.0 mm 0.02 in0.5 mm
04:45 AM 50.4°F10.2°C 41.0°F5.0°C 70% 2.3 mph N3.7 kmh N 6.9 mph11.1 kmh 30.06 in1017.9 mb - 0.00 in0.0 mm 0.02 in0.5 mm
05:00 AM 49.9°F9.9°C 40.5°F4.7°C 70% 2.3 mph N3.7 kmh N 5.8 mph9.3 kmh 30.07 in1018.3 mb - 0.00 in0.0 mm 0.02 in0.5 mm
05:15 AM 49.2°F9.6°C 38.7°F3.7°C 67% 2.3 mph NNW3.7 kmh NNW 6.9 mph11.1 kmh 30.08 in1018.6 mb - 0.00 in0.0 mm 0.02 in0.5 mm
05:30 AM 48.7°F9.3°C 37.1°F2.8°C 64% 1.2 mph NW1.9 kmh NW 1.2 mph1.9 kmh 30.09 in1019.0 mb - 0.00 in0.0 mm 0.02 in0.5 mm
05:45 AM 48.1°F8.9°C 37.3°F2.9°C 66% 1.2 mph WNW1.9 kmh WNW 3.5 mph5.6 kmh 30.10 in1019.3 mb - 0.00 in0.0 mm 0.02 in0.5 mm
06:00 AM 47.2°F8.4°C 35.6°F2.0°C 64% 2.3 mph N3.7 kmh N 5.8 mph9.3 kmh 30.11 in1019.6 mb - 0.00 in0.0 mm 0.02 in0.5 mm
06:15 AM 46.3°F7.9°C 34.8°F1.6°C 64% 1.2 mph N1.9 kmh N 4.6 mph7.4 kmh 30.12 in1020.0 mb - 0.00 in0.0 mm 0.02 in0.5 mm
06:30 AM 45.7°F7.6°C 34.6°F1.4°C 65% Calm Calm 2.3 mph3.7 kmh 30.12 in1020.0 mb - 0.00 in0.0 mm 0.02 in0.5 mm
06:45 AM 45.1°F7.3°C 33.6°F0.9°C 64% 1.2 mph NW1.9 kmh NW 1.2 mph1.9 kmh 30.12 in1020.0 mb - 0.00 in0.0 mm 0.02 in0.5 mm
07:00 AM 44.8°F7.1°C 34.1°F1.2°C 66% 1.2 mph NE1.9 kmh NE 3.5 mph5.6 kmh 30.13 in1020.3 mb - 0.00 in0.0 mm 0.02 in0.5 mm
07:15 AM 44.7°F7.1°C 32.1°F0.1°C 61% 1.2 mph W1.9 kmh W 5.8 mph9.3 kmh 30.13 in1020.3 mb - 0.00 in0.0 mm 0.02 in0.5 mm
07:30 AM 44.7°F7.1°C 31.7°F-0.2°C 60% 1.2 mph N1.9 kmh N 4.6 mph7.4 kmh 30.13 in1020.3 mb - 0.00 in0.0 mm 0.02 in0.5 mm
07:45 AM 44.7°F7.1°C 31.3°F-0.4°C 59% 1.2 mph WNW1.9 kmh WNW 4.6 mph7.4 kmh 30.14 in1020.7 mb - 0.00 in0.0 mm 0.02 in0.5 mm
08:00 AM 45.0°F7.2°C 31.6°F-0.2°C 59% 2.3 mph W3.7 kmh W 4.6 mph7.4 kmh 30.15 in1021.0 mb - 0.00 in0.0 mm 0.02 in0.5 mm
08:15 AM 45.8°F7.7°C 32.3°F0.2°C 59% Calm Calm 6.9 mph11.1 kmh 30.16 in1021.3 mb - 0.00 in0.0 mm 0.02 in0.5 mm
08:30 AM 45.6°F7.6°C 32.1°F0.1°C 59% Calm Calm 2.3 mph3.7 kmh 30.16 in1021.3 mb - 0.00 in0.0 mm 0.02 in0.5 mm
08:45 AM 45.9°F7.7°C 31.9°F-0.1°C 58% Calm Calm 2.3 mph3.7 kmh 30.16 in1021.3 mb - 0.00 in0.0 mm 0.02 in0.5 mm
09:00 AM 46.9°F8.3°C 32.9°F0.5°C 58% Calm Calm -- 30.16 in1021.3 mb - 0.00 in0.0 mm 0.02 in0.5 mm
09:15 AM 46.8°F8.2°C 31.5°F-0.3°C 55% 3.5 mph NNW5.6 kmh NNW 9.2 mph14.8 kmh 30.17 in1021.7 mb - 0.00 in0.0 mm 0.02 in0.5 mm
09:30 AM 47.3°F8.5°C 31.9°F-0.1°C 55% 2.3 mph NNW3.7 kmh NNW 6.9 mph11.1 kmh 30.16 in1021.3 mb - 0.00 in0.0 mm 0.02 in0.5 mm
09:45 AM 47.3°F8.5°C 32.4°F0.2°C 56% Calm Calm 1.2 mph1.9 kmh 30.17 in1021.7 mb - 0.00 in0.0 mm 0.02 in0.5 mm
10:00 AM 48.3°F9.1°C 32.4°F0.2°C 54% Calm Calm 1.2 mph1.9 kmh 30.16 in1021.3 mb - 0.00 in0.0 mm 0.02 in0.5 mm
10:15 AM 48.2°F9.0°C 31.4°F-0.3°C 52% 2.3 mph WNW3.7 kmh WNW 3.5 mph5.6 kmh 30.16 in1021.3 mb - 0.00 in0.0 mm 0.02 in0.5 mm
10:30 AM 48.2°F9.0°C 32.3°F0.2°C 54% 1.2 mph NNW1.9 kmh NNW 3.5 mph5.6 kmh 30.16 in1021.3 mb - 0.00 in0.0 mm 0.02 in0.5 mm
10:45 AM 48.6°F9.2°C 32.3°F0.2°C 53% 1.2 mph N1.9 kmh N 3.5 mph5.6 kmh 30.15 in1021.0 mb - 0.00 in0.0 mm 0.02 in0.5 mm
11:00 AM 49.4°F9.7°C 33.4°F0.8°C 54% 1.2 mph NW1.9 kmh NW 3.5 mph5.6 kmh 30.15 in1021.0 mb - 0.00 in0.0 mm 0.02 in0.5 mm
11:15 AM 49.7°F9.8°C 32.8°F0.4°C 52% 1.2 mph NNW1.9 kmh NNW 4.6 mph7.4 kmh 30.15 in1021.0 mb - 0.00 in0.0 mm 0.02 in0.5 mm
11:30 AM 50.0°F10.0°C 32.6°F0.3°C 51% Calm Calm 1.2 mph1.9 kmh 30.15 in1021.0 mb - 0.00 in0.0 mm 0.02 in0.5 mm
11:45 AM 51.0°F10.6°C 33.5°F0.8°C 51% 1.2 mph N1.9 kmh N 3.5 mph5.6 kmh 30.14 in1020.7 mb - 0.00 in0.0 mm 0.02 in0.5 mm
12:00 PM 51.0°F10.6°C 33.5°F0.8°C 51% 1.2 mph WSW1.9 kmh WSW 4.6 mph7.4 kmh 30.14 in1020.7 mb - 0.00 in0.0 mm 0.02 in0.5 mm
12:15 PM 51.2°F10.7°C 33.2°F0.7°C 50% 2.3 mph W3.7 kmh W 3.5 mph5.6 kmh 30.14 in1020.7 mb - 0.00 in0.0 mm 0.02 in0.5 mm
12:30 PM 51.9°F11.1°C 33.8°F1.0°C 50% 2.3 mph NW3.7 kmh NW 3.5 mph5.6 kmh 30.13 in1020.3 mb - 0.00 in0.0 mm 0.02 in0.5 mm
12:45 PM 52.6°F11.4°C 33.5°F0.8°C 48% 1.2 mph NE1.9 kmh NE 1.2 mph1.9 kmh 30.12 in1020.0 mb - 0.00 in0.0 mm 0.02 in0.5 mm
03:00 PM 55.3°F12.9°C 34.3°F1.3°C 45% 2.3 mph W3.7 kmh W 3.5 mph5.6 kmh 30.07 in1018.3 mb - 0.00 in0.0 mm 0.02 in0.5 mm
03:15 PM 54.5°F12.5°C 35.8°F2.1°C 49% 1.2 mph W1.9 kmh W 2.3 mph3.7 kmh 30.07 in1018.3 mb - 0.00 in0.0 mm 0.02 in0.5 mm
03:30 PM 55.0°F12.8°C 35.7°F2.1°C 48% 1.2 mph W1.9 kmh W 4.6 mph7.4 kmh 30.06 in1017.9 mb - 0.00 in0.0 mm 0.02 in0.5 mm
03:45 PM 55.0°F12.8°C 36.2°F2.3°C 49% 2.3 mph WSW3.7 kmh WSW 2.3 mph3.7 kmh 30.06 in1017.9 mb - 0.00 in0.0 mm 0.02 in0.5 mm
04:00 PM 55.5°F13.1°C 36.1°F2.3°C 48% 2.3 mph WSW3.7 kmh WSW 3.5 mph5.6 kmh 30.05 in1017.6 mb - 0.00 in0.0 mm 0.02 in0.5 mm
04:15 PM 54.9°F12.7°C 36.1°F2.3°C 49% 2.3 mph WSW3.7 kmh WSW 5.8 mph9.3 kmh 30.05 in1017.6 mb - 0.00 in0.0 mm 0.02 in0.5 mm
04:30 PM 54.6°F12.6°C 35.3°F1.8°C 48% 3.5 mph WSW5.6 kmh WSW 4.6 mph7.4 kmh 30.05 in1017.6 mb - 0.00 in0.0 mm 0.02 in0.5 mm
04:45 PM 54.8°F12.7°C 36.0°F2.2°C 49% 2.3 mph W3.7 kmh W 3.5 mph5.6 kmh 30.05 in1017.6 mb - 0.00 in0.0 mm 0.02 in0.5 mm
05:00 PM 55.3°F12.9°C 35.9°F2.2°C 48% 3.5 mph WSW5.6 kmh WSW 4.6 mph7.4 kmh 30.04 in1017.3 mb - 0.00 in0.0 mm 0.02 in0.5 mm
05:15 PM 54.6°F12.6°C 35.8°F2.1°C 49% 3.5 mph WSW5.6 kmh WSW 6.9 mph11.1 kmh 30.05 in1017.6 mb - 0.00 in0.0 mm 0.02 in0.5 mm
05:30 PM 53.8°F12.1°C 35.6°F2.0°C 50% 2.3 mph W3.7 kmh W 3.5 mph5.6 kmh 30.05 in1017.6 mb - 0.00 in0.0 mm 0.02 in0.5 mm
05:45 PM 53.2°F11.8°C 36.0°F2.2°C 52% 2.3 mph W3.7 kmh W 3.5 mph5.6 kmh 30.06 in1017.9 mb - 0.00 in0.0 mm 0.02 in0.5 mm
06:00 PM 52.6°F11.4°C 35.5°F1.9°C 52% 1.2 mph SW1.9 kmh SW 5.8 mph9.3 kmh 30.06 in1017.9 mb - 0.00 in0.0 mm 0.02 in0.5 mm
06:15 PM 52.2°F11.2°C 35.6°F2.0°C 53% 1.2 mph WSW1.9 kmh WSW 3.5 mph5.6 kmh 30.06 in1017.9 mb - 0.00 in0.0 mm 0.02 in0.5 mm
06:30 PM 51.9°F11.1°C 36.2°F2.3°C 55% 1.2 mph W1.9 kmh W 4.6 mph7.4 kmh 30.05 in1017.6 mb - 0.00 in0.0 mm 0.02 in0.5 mm
06:45 PM 51.7°F10.9°C 36.0°F2.2°C 55% 1.2 mph WSW1.9 kmh WSW 3.5 mph5.6 kmh 30.06 in1017.9 mb - 0.00 in0.0 mm 0.02 in0.5 mm
07:00 PM 51.4°F10.8°C 36.7°F2.6°C 57% 1.2 mph WSW1.9 kmh WSW 2.3 mph3.7 kmh 30.06 in1017.9 mb - 0.00 in0.0 mm 0.02 in0.5 mm
07:15 PM 51.0°F10.6°C 37.6°F3.1°C 60% 1.2 mph WSW1.9 kmh WSW 3.5 mph5.6 kmh 30.06 in1017.9 mb - 0.00 in0.0 mm 0.02 in0.5 mm
07:30 PM 50.6°F10.3°C 37.6°F3.1°C 61% 1.2 mph WNW1.9 kmh WNW 2.3 mph3.7 kmh 30.06 in1017.9 mb - 0.00 in0.0 mm 0.02 in0.5 mm
07:45 PM 50.4°F10.2°C 37.9°F3.3°C 62% 1.2 mph W1.9 kmh W 3.5 mph5.6 kmh 30.06 in1017.9 mb - 0.00 in0.0 mm 0.02 in0.5 mm
08:00 PM 50.2°F10.1°C 38.1°F3.4°C 63% 1.2 mph WSW1.9 kmh WSW 3.5 mph5.6 kmh 30.07 in1018.3 mb - 0.00 in0.0 mm 0.02 in0.5 mm
08:15 PM 50.0°F10.0°C 38.3°F3.5°C 64% 1.2 mph SW1.9 kmh SW 1.2 mph1.9 kmh 30.07 in1018.3 mb - 0.00 in0.0 mm 0.02 in0.5 mm
08:30 PM 49.8°F9.9°C 38.5°F3.6°C 65% Calm Calm 2.3 mph3.7 kmh 30.07 in1018.3 mb - 0.00 in0.0 mm 0.02 in0.5 mm
08:45 PM 49.5°F9.7°C 38.2°F3.4°C 65% 2.3 mph W3.7 kmh W 3.5 mph5.6 kmh 30.07 in1018.3 mb - 0.00 in0.0 mm 0.02 in0.5 mm
09:00 PM 49.3°F9.6°C 38.4°F3.6°C 66% 1.2 mph WSW1.9 kmh WSW 3.5 mph5.6 kmh 30.07 in1018.3 mb - 0.00 in0.0 mm 0.02 in0.5 mm
09:15 PM 49.0°F9.4°C 38.5°F3.6°C 67% 1.2 mph W1.9 kmh W 3.5 mph5.6 kmh 30.07 in1018.3 mb - 0.00 in0.0 mm 0.02 in0.5 mm
09:30 PM 48.7°F9.3°C 38.6°F3.7°C 68% 1.2 mph W1.9 kmh W 1.2 mph1.9 kmh 30.07 in1018.3 mb - 0.00 in0.0 mm 0.02 in0.5 mm
09:45 PM 48.2°F9.0°C 38.5°F3.6°C 69% Calm Calm 1.2 mph1.9 kmh 30.06 in1017.9 mb - 0.00 in0.0 mm 0.02 in0.5 mm
10:00 PM 48.0°F8.9°C 38.7°F3.7°C 70% Calm Calm 1.2 mph1.9 kmh 30.06 in1017.9 mb - 0.00 in0.0 mm 0.02 in0.5 mm
10:15 PM 47.7°F8.7°C 38.8°F3.8°C 71% Calm Calm 1.2 mph1.9 kmh 30.06 in1017.9 mb - 0.00 in0.0 mm 0.02 in0.5 mm
10:30 PM 47.6°F8.7°C 38.6°F3.7°C 71% 1.2 mph W1.9 kmh W 3.5 mph5.6 kmh 30.06 in1017.9 mb - 0.00 in0.0 mm 0.02 in0.5 mm
10:45 PM 47.5°F8.6°C 38.6°F3.7°C 71% Calm Calm 1.2 mph1.9 kmh 30.06 in1017.9 mb - 0.00 in0.0 mm 0.02 in0.5 mm
11:00 PM 47.4°F8.6°C 38.8°F3.8°C 72% Calm Calm 1.2 mph1.9 kmh 30.07 in1018.3 mb - 0.00 in0.0 mm 0.02 in0.5 mm
11:15 PM 47.2°F8.4°C 39.0°F3.9°C 73% Calm Calm 1.2 mph1.9 kmh 30.06 in1017.9 mb - 0.00 in0.0 mm 0.02 in0.5 mm
11:30 PM 47.0°F8.3°C 38.8°F3.8°C 73% 1.2 mph WNW1.9 kmh WNW 3.5 mph5.6 kmh 30.06 in1017.9 mb - 0.00 in0.0 mm 0.02 in0.5 mm
11:45 PM 47.0°F8.3°C 38.8°F3.8°C 73% 1.2 mph W1.9 kmh W 3.5 mph5.6 kmh 30.05 in1017.6 mb - 0.00 in0.0 mm 0.02 in0.5 mm